Terminal Aerodrome Forecast
Issued by NWS Portland, OR

Current Version | Previous Version | Text Only | Print | Product List | Glossary On
Versions: 1 2 3 4 5 6 7 8 9 10 11 12 13 14 15
000
FTUS46 KPQR 121727
TAFEUG
TAF
KEUG 121727Z 1218/1318 00000KT 1/4SM FZFG VV002
     FM122000 00000KT 2SM BR BKN004
     FM122200 02005KT 6SM BR SCT250
     FM130600 20002KT 1/2SM FG VV001=

USA.gov is the U.S. government's official web portal to all federal, state and local government web resources and services.